sensor_id;sensor_type;location;lat;lon;timestamp;temperature;humidity
4425;DHT22;2225;53.568;13.266;2023-09-19T00:00:47;23.20;93.70
4425;DHT22;2225;53.568;13.266;2023-09-19T00:03:16;23.20;93.80
4425;DHT22;2225;53.568;13.266;2023-09-19T00:05:43;23.20;93.80
4425;DHT22;2225;53.568;13.266;2023-09-19T00:08:11;23.20;93.80
4425;DHT22;2225;53.568;13.266;2023-09-19T00:10:42;23.20;93.80
4425;DHT22;2225;53.568;13.266;2023-09-19T00:13:10;23.20;93.80
4425;DHT22;2225;53.568;13.266;2023-09-19T00:15:47;23.20;93.90
4425;DHT22;2225;53.568;13.266;2023-09-19T00:18:19;23.20;94.00
4425;DHT22;2225;53.568;13.266;2023-09-19T00:20:49;23.10;94.00
4425;DHT22;2225;53.568;13.266;2023-09-19T00:23:18;23.10;93.90
4425;DHT22;2225;53.568;13.266;2023-09-19T00:25:46;23.10;93.90
4425;DHT22;2225;53.568;13.266;2023-09-19T00:28:13;23.10;93.90
4425;DHT22;2225;53.568;13.266;2023-09-19T00:30:43;23.10;93.90
4425;DHT22;2225;53.568;13.266;2023-09-19T00:33:11;23.10;94.00
4425;DHT22;2225;53.568;13.266;2023-09-19T00:35:53;23.10;94.00
4425;DHT22;2225;53.568;13.266;2023-09-19T00:38:21;23.10;94.10
4425;DHT22;2225;53.568;13.266;2023-09-19T00:40:54;23.10;94.10
4425;DHT22;2225;53.568;13.266;2023-09-19T00:43:26;23.10;94.40
4425;DHT22;2225;53.568;13.266;2023-09-19T00:45:55;23.10;94.30
4425;DHT22;2225;53.568;13.266;2023-09-19T00:48:24;23.10;94.30
4425;DHT22;2225;53.568;13.266;2023-09-19T00:50:54;23.10;94.40
4425;DHT22;2225;53.568;13.266;2023-09-19T00:53:31;23.00;94.40
4425;DHT22;2225;53.568;13.266;2023-09-19T00:55:57;23.00;94.40
4425;DHT22;2225;53.568;13.266;2023-09-19T00:58:26;23.00;94.40
4425;DHT22;2225;53.568;13.266;2023-09-19T01:01:00;23.00;94.80
4425;DHT22;2225;53.568;13.266;2023-09-19T01:03:27;22.90;94.50
4425;DHT22;2225;53.568;13.266;2023-09-19T01:05:55;22.90;94.50
4425;DHT22;2225;53.568;13.266;2023-09-19T01:08:21;22.90;94.60
4425;DHT22;2225;53.568;13.266;2023-09-19T01:10:52;22.90;94.60
4425;DHT22;2225;53.568;13.266;2023-09-19T01:16:53;22.90;94.80
4425;DHT22;2225;53.568;13.266;2023-09-19T01:25:55;22.80;94.60
4425;DHT22;2225;53.568;13.266;2023-09-19T01:31:47;22.80;94.60
4425;DHT22;2225;53.568;13.266;2023-09-19T01:34:16;22.80;94.50
4425;DHT22;2225;53.568;13.266;2023-09-19T01:36:44;22.70;94.60
4425;DHT22;2225;53.568;13.266;2023-09-19T01:39:13;22.70;94.70
4425;DHT22;2225;53.568;13.266;2023-09-19T01:41:59;22.70;94.90
4425;DHT22;2225;53.568;13.266;2023-09-19T01:45:10;22.70;94.90
4425;DHT22;2225;53.568;13.266;2023-09-19T01:47:52;22.60;95.10
4425;DHT22;2225;53.568;13.266;2023-09-19T01:50:44;22.60;95.20
4425;DHT22;2225;53.568;13.266;2023-09-19T01:53:24;22.60;95.20
4425;DHT22;2225;53.568;13.266;2023-09-19T01:55:55;22.60;95.20
4425;DHT22;2225;53.568;13.266;2023-09-19T01:58:40;22.50;95.20
4425;DHT22;2225;53.568;13.266;2023-09-19T02:01:15;22.50;95.30
4425;DHT22;2225;53.568;13.266;2023-09-19T02:03:46;22.50;95.30
4425;DHT22;2225;53.568;13.266;2023-09-19T02:06:15;22.50;95.30
4425;DHT22;2225;53.568;13.266;2023-09-19T02:08:42;22.40;95.30
4425;DHT22;2225;53.568;13.266;2023-09-19T02:11:09;22.50;95.50
4425;DHT22;2225;53.568;13.266;2023-09-19T02:13:37;22.50;95.10
4425;DHT22;2225;53.568;13.266;2023-09-19T02:16:05;22.50;94.90
4425;DHT22;2225;53.568;13.266;2023-09-19T02:18:33;22.50;94.80
4425;DHT22;2225;53.568;13.266;2023-09-19T02:21:02;22.50;94.70
4425;DHT22;2225;53.568;13.266;2023-09-19T02:23:30;22.50;94.60
4425;DHT22;2225;53.568;13.266;2023-09-19T02:25:57;22.50;94.50
4425;DHT22;2225;53.568;13.266;2023-09-19T02:28:24;22.50;94.30
4425;DHT22;2225;53.568;13.266;2023-09-19T02:30:52;22.60;94.30
4425;DHT22;2225;53.568;13.266;2023-09-19T02:33:19;22.60;94.20
4425;DHT22;2225;53.568;13.266;2023-09-19T02:35:46;22.60;94.10
4425;DHT22;2225;53.568;13.266;2023-09-19T02:38:13;22.60;94.10
4425;DHT22;2225;53.568;13.266;2023-09-19T02:40:41;22.60;93.90
4425;DHT22;2225;53.568;13.266;2023-09-19T02:43:09;22.60;93.80
4425;DHT22;2225;53.568;13.266;2023-09-19T02:45:37;22.60;93.80
4425;DHT22;2225;53.568;13.266;2023-09-19T02:48:04;22.60;93.70
4425;DHT22;2225;53.568;13.266;2023-09-19T02:50:31;22.60;93.60
4425;DHT22;2225;53.568;13.266;2023-09-19T02:52:58;22.50;93.50
4425;DHT22;2225;53.568;13.266;2023-09-19T02:55:25;22.50;93.50
4425;DHT22;2225;53.568;13.266;2023-09-19T02:57:53;22.50;93.40
4425;DHT22;2225;53.568;13.266;2023-09-19T03:00:24;22.50;93.30
4425;DHT22;2225;53.568;13.266;2023-09-19T03:02:53;22.40;93.20
4425;DHT22;2225;53.568;13.266;2023-09-19T03:05:22;22.40;93.20
4425;DHT22;2225;53.568;13.266;2023-09-19T03:07:51;22.40;93.20
4425;DHT22;2225;53.568;13.266;2023-09-19T03:10:20;22.30;93.10
4425;DHT22;2225;53.568;13.266;2023-09-19T03:12:47;22.30;93.10
4425;DHT22;2225;53.568;13.266;2023-09-19T03:15:15;22.20;93.10
4425;DHT22;2225;53.568;13.266;2023-09-19T03:17:45;22.20;93.10
4425;DHT22;2225;53.568;13.266;2023-09-19T03:20:13;22.20;93.00
4425;DHT22;2225;53.568;13.266;2023-09-19T03:22:41;22.10;92.90
4425;DHT22;2225;53.568;13.266;2023-09-19T03:25:09;22.10;92.90
4425;DHT22;2225;53.568;13.266;2023-09-19T03:27:40;22.00;92.90
4425;DHT22;2225;53.568;13.266;2023-09-19T03:30:07;22.00;92.90
4425;DHT22;2225;53.568;13.266;2023-09-19T03:32:36;22.00;92.90
4425;DHT22;2225;53.568;13.266;2023-09-19T03:35:03;21.90;92.90
4425;DHT22;2225;53.568;13.266;2023-09-19T03:37:32;21.90;93.00
4425;DHT22;2225;53.568;13.266;2023-09-19T03:40:02;21.90;92.90
4425;DHT22;2225;53.568;13.266;2023-09-19T03:42:32;21.80;92.80
4425;DHT22;2225;53.568;13.266;2023-09-19T03:44:59;21.80;92.80
4425;DHT22;2225;53.568;13.266;2023-09-19T03:47:27;21.80;92.70
4425;DHT22;2225;53.568;13.266;2023-09-19T03:49:59;21.70;92.70
4425;DHT22;2225;53.568;13.266;2023-09-19T03:52:26;21.70;92.70
4425;DHT22;2225;53.568;13.266;2023-09-19T03:54:53;21.70;92.40
4425;DHT22;2225;53.568;13.266;2023-09-19T03:57:20;21.70;92.50
4425;DHT22;2225;53.568;13.266;2023-09-19T03:59:48;21.60;92.50
4425;DHT22;2225;53.568;13.266;2023-09-19T04:02:15;21.60;92.40
4425;DHT22;2225;53.568;13.266;2023-09-19T04:04:51;21.50;92.50
4425;DHT22;2225;53.568;13.266;2023-09-19T04:07:18;21.50;92.50
4425;DHT22;2225;53.568;13.266;2023-09-19T04:09:46;21.50;92.50
4425;DHT22;2225;53.568;13.266;2023-09-19T04:12:13;21.50;92.50
4425;DHT22;2225;53.568;13.266;2023-09-19T04:14:44;21.50;92.50
4425;DHT22;2225;53.568;13.266;2023-09-19T04:17:11;21.50;92.60
4425;DHT22;2225;53.568;13.266;2023-09-19T04:19:38;21.50;92.50
4425;DHT22;2225;53.568;13.266;2023-09-19T04:22:05;21.50;92.40
4425;DHT22;2225;53.568;13.266;2023-09-19T04:24:33;21.40;92.30
4425;DHT22;2225;53.568;13.266;2023-09-19T04:27:01;21.40;92.20
4425;DHT22;2225;53.568;13.266;2023-09-19T04:29:28;21.40;92.10
4425;DHT22;2225;53.568;13.266;2023-09-19T04:31:56;21.40;92.10
4425;DHT22;2225;53.568;13.266;2023-09-19T04:34:24;21.30;92.00
4425;DHT22;2225;53.568;13.266;2023-09-19T04:36:51;21.30;92.10
4425;DHT22;2225;53.568;13.266;2023-09-19T04:39:19;21.20;92.20
4425;DHT22;2225;53.568;13.266;2023-09-19T04:41:47;21.20;92.20
4425;DHT22;2225;53.568;13.266;2023-09-19T04:44:14;21.20;92.30
4425;DHT22;2225;53.568;13.266;2023-09-19T04:46:42;21.20;92.40
4425;DHT22;2225;53.568;13.266;2023-09-19T04:49:09;21.20;92.40
4425;DHT22;2225;53.568;13.266;2023-09-19T04:51:36;21.20;92.30
4425;DHT22;2225;53.568;13.266;2023-09-19T04:54:03;21.20;92.20
4425;DHT22;2225;53.568;13.266;2023-09-19T04:56:30;21.20;92.00
4425;DHT22;2225;53.568;13.266;2023-09-19T04:58:59;21.10;92.00
4425;DHT22;2225;53.568;13.266;2023-09-19T05:01:26;21.10;92.10
4425;DHT22;2225;53.568;13.266;2023-09-19T05:03:53;21.10;92.10
4425;DHT22;2225;53.568;13.266;2023-09-19T05:06:21;21.10;92.10
4425;DHT22;2225;53.568;13.266;2023-09-19T05:08:49;21.10;92.20
4425;DHT22;2225;53.568;13.266;2023-09-19T05:11:18;21.10;92.20
4425;DHT22;2225;53.568;13.266;2023-09-19T05:13:46;21.10;92.20
4425;DHT22;2225;53.568;13.266;2023-09-19T05:16:13;21.10;92.20
4425;DHT22;2225;53.568;13.266;2023-09-19T05:18:40;21.10;92.30
4425;DHT22;2225;53.568;13.266;2023-09-19T05:21:07;21.10;92.30
4425;DHT22;2225;53.568;13.266;2023-09-19T05:23:34;21.10;92.30
4425;DHT22;2225;53.568;13.266;2023-09-19T05:26:01;21.10;92.20
4425;DHT22;2225;53.568;13.266;2023-09-19T05:28:28;21.00;92.20
4425;DHT22;2225;53.568;13.266;2023-09-19T05:30:56;21.00;92.20
4425;DHT22;2225;53.568;13.266;2023-09-19T05:33:24;21.00;92.20
4425;DHT22;2225;53.568;13.266;2023-09-19T05:35:51;21.00;92.30
4425;DHT22;2225;53.568;13.266;2023-09-19T05:38:18;21.00;92.30
4425;DHT22;2225;53.568;13.266;2023-09-19T05:40:46;21.00;92.30
4425;DHT22;2225;53.568;13.266;2023-09-19T05:43:13;21.00;92.30
4425;DHT22;2225;53.568;13.266;2023-09-19T05:45:41;20.90;92.20
4425;DHT22;2225;53.568;13.266;2023-09-19T05:48:10;20.90;92.20
4425;DHT22;2225;53.568;13.266;2023-09-19T05:50:42;20.90;92.20
4425;DHT22;2225;53.568;13.266;2023-09-19T05:53:10;20.90;92.20
4425;DHT22;2225;53.568;13.266;2023-09-19T05:55:41;20.90;92.20
4425;DHT22;2225;53.568;13.266;2023-09-19T05:58:09;20.90;92.20
4425;DHT22;2225;53.568;13.266;2023-09-19T06:00:37;20.90;92.20
4425;DHT22;2225;53.568;13.266;2023-09-19T06:03:05;20.90;92.10
4425;DHT22;2225;53.568;13.266;2023-09-19T06:05:33;21.00;92.10
4425;DHT22;2225;53.568;13.266;2023-09-19T06:08:00;21.00;92.10
4425;DHT22;2225;53.568;13.266;2023-09-19T06:10:27;21.00;92.00
4425;DHT22;2225;53.568;13.266;2023-09-19T06:12:56;21.00;92.00
4425;DHT22;2225;53.568;13.266;2023-09-19T06:15:26;21.00;92.00
4425;DHT22;2225;53.568;13.266;2023-09-19T06:17:54;21.10;92.10
4425;DHT22;2225;53.568;13.266;2023-09-19T06:20:23;21.10;92.00
4425;DHT22;2225;53.568;13.266;2023-09-19T06:22:50;21.10;92.00
4425;DHT22;2225;53.568;13.266;2023-09-19T06:25:18;21.10;91.80
4425;DHT22;2225;53.568;13.266;2023-09-19T06:27:50;21.10;91.80
4425;DHT22;2225;53.568;13.266;2023-09-19T06:30:23;21.10;91.70
4425;DHT22;2225;53.568;13.266;2023-09-19T06:32:59;21.20;91.70
4425;DHT22;2225;53.568;13.266;2023-09-19T06:35:28;21.20;91.60
4425;DHT22;2225;53.568;13.266;2023-09-19T06:37:56;21.20;91.90
4425;DHT22;2225;53.568;13.266;2023-09-19T06:40:25;21.30;91.50
4425;DHT22;2225;53.568;13.266;2023-09-19T06:42:52;21.30;91.50
4425;DHT22;2225;53.568;13.266;2023-09-19T06:45:20;21.30;91.40
4425;DHT22;2225;53.568;13.266;2023-09-19T06:47:50;21.30;91.30
4425;DHT22;2225;53.568;13.266;2023-09-19T06:50:19;21.40;91.00
4425;DHT22;2225;53.568;13.266;2023-09-19T06:52:53;21.40;91.10
4425;DHT22;2225;53.568;13.266;2023-09-19T06:55:22;21.40;91.00
4425;DHT22;2225;53.568;13.266;2023-09-19T06:57:55;21.40;90.70
4425;DHT22;2225;53.568;13.266;2023-09-19T07:00:22;21.50;90.60
4425;DHT22;2225;53.568;13.266;2023-09-19T07:03:00;21.40;90.50
4425;DHT22;2225;53.568;13.266;2023-09-19T07:05:32;21.40;90.30
4425;DHT22;2225;53.568;13.266;2023-09-19T07:08:00;21.40;90.20
4425;DHT22;2225;53.568;13.266;2023-09-19T07:10:27;21.40;90.00
4425;DHT22;2225;53.568;13.266;2023-09-19T07:15:32;21.40;89.80
4425;DHT22;2225;53.568;13.266;2023-09-19T07:18:06;21.30;88.90
4425;DHT22;2225;53.568;13.266;2023-09-19T07:20:36;21.30;87.90
4425;DHT22;2225;53.568;13.266;2023-09-19T07:23:03;21.30;88.10
4425;DHT22;2225;53.568;13.266;2023-09-19T07:25:30;21.30;88.40
4425;DHT22;2225;53.568;13.266;2023-09-19T07:27:58;21.40;87.30
4425;DHT22;2225;53.568;13.266;2023-09-19T07:30:27;21.40;87.40
4425;DHT22;2225;53.568;13.266;2023-09-19T07:32:55;21.40;86.80
4425;DHT22;2225;53.568;13.266;2023-09-19T07:35:22;21.50;87.00
4425;DHT22;2225;53.568;13.266;2023-09-19T07:37:49;21.50;86.70
4425;DHT22;2225;53.568;13.266;2023-09-19T07:40:19;21.50;86.40
4425;DHT22;2225;53.568;13.266;2023-09-19T07:42:47;21.50;86.00
4425;DHT22;2225;53.568;13.266;2023-09-19T07:45:14;21.50;85.90
4425;DHT22;2225;53.568;13.266;2023-09-19T07:47:47;21.50;85.90
4425;DHT22;2225;53.568;13.266;2023-09-19T07:50:16;21.50;85.40
4425;DHT22;2225;53.568;13.266;2023-09-19T07:52:48;21.60;85.80
4425;DHT22;2225;53.568;13.266;2023-09-19T07:55:20;21.50;85.40
4425;DHT22;2225;53.568;13.266;2023-09-19T07:57:50;21.50;84.60
4425;DHT22;2225;53.568;13.266;2023-09-19T08:00:18;21.50;84.40
4425;DHT22;2225;53.568;13.266;2023-09-19T08:02:45;21.50;84.50
4425;DHT22;2225;53.568;13.266;2023-09-19T08:05:16;21.50;84.80
4425;DHT22;2225;53.568;13.266;2023-09-19T08:07:45;21.40;85.00
4425;DHT22;2225;53.568;13.266;2023-09-19T08:10:15;21.40;84.90
4425;DHT22;2225;53.568;13.266;2023-09-19T08:12:47;21.40;84.80
4425;DHT22;2225;53.568;13.266;2023-09-19T08:15:19;21.30;85.10
4425;DHT22;2225;53.568;13.266;2023-09-19T08:17:47;21.40;85.10
4425;DHT22;2225;53.568;13.266;2023-09-19T08:20:15;21.30;85.00
4425;DHT22;2225;53.568;13.266;2023-09-19T08:22:50;21.30;84.80
4425;DHT22;2225;53.568;13.266;2023-09-19T08:25:24;21.40;85.10
4425;DHT22;2225;53.568;13.266;2023-09-19T08:27:54;21.40;84.50
4425;DHT22;2225;53.568;13.266;2023-09-19T08:30:24;21.50;84.50
4425;DHT22;2225;53.568;13.266;2023-09-19T08:33:00;21.60;84.40
4425;DHT22;2225;53.568;13.266;2023-09-19T08:35:27;21.80;82.70
4425;DHT22;2225;53.568;13.266;2023-09-19T08:37:55;21.90;81.70
4425;DHT22;2225;53.568;13.266;2023-09-19T08:40:23;22.00;80.70
4425;DHT22;2225;53.568;13.266;2023-09-19T08:42:56;22.00;79.60
4425;DHT22;2225;53.568;13.266;2023-09-19T08:45:24;22.10;79.40
4425;DHT22;2225;53.568;13.266;2023-09-19T08:48:17;22.10;78.90
4425;DHT22;2225;53.568;13.266;2023-09-19T08:51:00;22.10;78.40
4425;DHT22;2225;53.568;13.266;2023-09-19T08:53:51;22.10;78.50
4425;DHT22;2225;53.568;13.266;2023-09-19T08:56:20;22.20;77.30
4425;DHT22;2225;53.568;13.266;2023-09-19T08:59:02;22.30;77.90
4425;DHT22;2225;53.568;13.266;2023-09-19T09:01:31;22.30;77.50
4425;DHT22;2225;53.568;13.266;2023-09-19T09:03:59;22.40;77.90
4425;DHT22;2225;53.568;13.266;2023-09-19T09:06:31;22.50;78.00
4425;DHT22;2225;53.568;13.266;2023-09-19T09:08:59;22.50;75.80
4425;DHT22;2225;53.568;13.266;2023-09-19T09:11:27;22.50;75.60
4425;DHT22;2225;53.568;13.266;2023-09-19T09:13:55;22.60;76.10
4425;DHT22;2225;53.568;13.266;2023-09-19T09:16:24;22.70;76.20
4425;DHT22;2225;53.568;13.266;2023-09-19T09:18:53;22.80;75.60
4425;DHT22;2225;53.568;13.266;2023-09-19T09:21:22;22.80;76.00
4425;DHT22;2225;53.568;13.266;2023-09-19T09:23:49;22.90;76.10
4425;DHT22;2225;53.568;13.266;2023-09-19T09:26:41;22.90;75.60
4425;DHT22;2225;53.568;13.266;2023-09-19T09:29:09;23.00;74.80
4425;DHT22;2225;53.568;13.266;2023-09-19T09:31:36;23.00;73.00
4425;DHT22;2225;53.568;13.266;2023-09-19T09:34:04;23.00;72.70
4425;DHT22;2225;53.568;13.266;2023-09-19T09:36:36;23.00;73.80
4425;DHT22;2225;53.568;13.266;2023-09-19T09:39:04;23.10;73.30
4425;DHT22;2225;53.568;13.266;2023-09-19T09:41:52;23.10;71.40
4425;DHT22;2225;53.568;13.266;2023-09-19T09:44:19;23.00;71.80
4425;DHT22;2225;53.568;13.266;2023-09-19T09:46:47;23.10;72.30
4425;DHT22;2225;53.568;13.266;2023-09-19T09:49:26;23.10;71.90
4425;DHT22;2225;53.568;13.266;2023-09-19T09:52:02;23.20;72.70
4425;DHT22;2225;53.568;13.266;2023-09-19T09:55:03;23.20;72.30
4425;DHT22;2225;53.568;13.266;2023-09-19T09:57:34;23.30;72.60
4425;DHT22;2225;53.568;13.266;2023-09-19T10:00:03;23.40;71.70
4425;DHT22;2225;53.568;13.266;2023-09-19T10:02:39;23.60;71.70
4425;DHT22;2225;53.568;13.266;2023-09-19T10:05:15;23.60;70.20
4425;DHT22;2225;53.568;13.266;2023-09-19T10:07:47;23.70;70.20
4425;DHT22;2225;53.568;13.266;2023-09-19T10:10:31;23.70;69.60
4425;DHT22;2225;53.568;13.266;2023-09-19T10:13:08;23.80;68.60
4425;DHT22;2225;53.568;13.266;2023-09-19T10:15:42;23.70;68.80
4425;DHT22;2225;53.568;13.266;2023-09-19T10:18:20;23.80;69.70
4425;DHT22;2225;53.568;13.266;2023-09-19T10:20:48;23.90;70.10
4425;DHT22;2225;53.568;13.266;2023-09-19T10:23:18;24.00;68.30
4425;DHT22;2225;53.568;13.266;2023-09-19T10:25:51;24.10;68.00
4425;DHT22;2225;53.568;13.266;2023-09-19T10:28:20;24.10;69.00
4425;DHT22;2225;53.568;13.266;2023-09-19T10:30:50;24.20;69.40
4425;DHT22;2225;53.568;13.266;2023-09-19T10:33:24;24.30;66.90
4425;DHT22;2225;53.568;13.266;2023-09-19T10:35:59;24.30;66.40
4425;DHT22;2225;53.568;13.266;2023-09-19T10:38:27;24.30;66.00
4425;DHT22;2225;53.568;13.266;2023-09-19T10:40:56;24.40;66.90
4425;DHT22;2225;53.568;13.266;2023-09-19T10:43:32;24.40;65.60
4425;DHT22;2225;53.568;13.266;2023-09-19T10:46:09;24.40;65.30
4425;DHT22;2225;53.568;13.266;2023-09-19T10:48:39;24.40;66.00
4425;DHT22;2225;53.568;13.266;2023-09-19T10:51:19;24.50;67.10
4425;DHT22;2225;53.568;13.266;2023-09-19T10:53:55;24.60;66.40
4425;DHT22;2225;53.568;13.266;2023-09-19T10:56:30;24.60;65.20
4425;DHT22;2225;53.568;13.266;2023-09-19T10:59:11;24.70;62.40
4425;DHT22;2225;53.568;13.266;2023-09-19T11:01:43;24.70;62.00
4425;DHT22;2225;53.568;13.266;2023-09-19T11:04:23;24.70;62.10
4425;DHT22;2225;53.568;13.266;2023-09-19T11:07:10;24.70;62.70
4425;DHT22;2225;53.568;13.266;2023-09-19T11:09:55;24.80;63.00
4425;DHT22;2225;53.568;13.266;2023-09-19T11:15:08;24.70;63.10
4425;DHT22;2225;53.568;13.266;2023-09-19T11:17:43;24.80;63.50
4425;DHT22;2225;53.568;13.266;2023-09-19T11:20:22;24.80;61.70
4425;DHT22;2225;53.568;13.266;2023-09-19T11:33:21;24.70;62.20
4425;DHT22;2225;53.568;13.266;2023-09-19T11:36:13;24.70;62.30
4425;DHT22;2225;53.568;13.266;2023-09-19T11:44:33;24.80;60.50
4425;DHT22;2225;53.568;13.266;2023-09-19T11:46:54;24.80;61.20
4425;DHT22;2225;53.568;13.266;2023-09-19T11:49:30;24.80;61.80
4425;DHT22;2225;53.568;13.266;2023-09-19T11:52:00;24.70;61.80
4425;DHT22;2225;53.568;13.266;2023-09-19T11:54:28;24.70;62.70
4425;DHT22;2225;53.568;13.266;2023-09-19T11:56:59;24.60;61.60
4425;DHT22;2225;53.568;13.266;2023-09-19T11:59:27;24.50;62.30
4425;DHT22;2225;53.568;13.266;2023-09-19T12:02:06;24.50;62.50
4425;DHT22;2225;53.568;13.266;2023-09-19T12:04:40;24.50;62.60
4425;DHT22;2225;53.568;13.266;2023-09-19T12:07:11;24.40;63.00
4425;DHT22;2225;53.568;13.266;2023-09-19T12:09:44;24.50;63.30
4425;DHT22;2225;53.568;13.266;2023-09-19T12:12:25;24.50;63.30
4425;DHT22;2225;53.568;13.266;2023-09-19T12:14:54;24.60;63.10
4425;DHT22;2225;53.568;13.266;2023-09-19T12:17:39;24.60;63.90
4425;DHT22;2225;53.568;13.266;2023-09-19T12:20:09;24.70;63.50
4425;DHT22;2225;53.568;13.266;2023-09-19T12:22:42;24.70;62.60
4425;DHT22;2225;53.568;13.266;2023-09-19T12:25:10;24.80;62.90
4425;DHT22;2225;53.568;13.266;2023-09-19T12:27:45;24.80;62.20
4425;DHT22;2225;53.568;13.266;2023-09-19T12:30:30;24.80;61.00
4425;DHT22;2225;53.568;13.266;2023-09-19T12:33:02;24.70;61.30
4425;DHT22;2225;53.568;13.266;2023-09-19T12:35:31;24.70;61.40
4425;DHT22;2225;53.568;13.266;2023-09-19T12:38:02;24.70;61.80
4425;DHT22;2225;53.568;13.266;2023-09-19T12:40:31;24.60;62.20
4425;DHT22;2225;53.568;13.266;2023-09-19T12:43:00;24.60;62.30
4425;DHT22;2225;53.568;13.266;2023-09-19T12:45:31;24.60;61.80
4425;DHT22;2225;53.568;13.266;2023-09-19T12:48:24;24.60;60.80
4425;DHT22;2225;53.568;13.266;2023-09-19T12:51:04;24.50;60.00
4425;DHT22;2225;53.568;13.266;2023-09-19T12:53:38;24.50;60.90
4425;DHT22;2225;53.568;13.266;2023-09-19T12:56:10;24.50;60.40
4425;DHT22;2225;53.568;13.266;2023-09-19T13:01:17;24.40;60.20
4425;DHT22;2225;53.568;13.266;2023-09-19T13:03:44;24.40;60.20
4425;DHT22;2225;53.568;13.266;2023-09-19T13:06:12;24.40;60.70
4425;DHT22;2225;53.568;13.266;2023-09-19T13:08:43;24.40;61.00
4425;DHT22;2225;53.568;13.266;2023-09-19T13:11:16;24.40;59.70
4425;DHT22;2225;53.568;13.266;2023-09-19T13:13:47;24.40;59.70
4425;DHT22;2225;53.568;13.266;2023-09-19T13:16:21;24.40;60.20
4425;DHT22;2225;53.568;13.266;2023-09-19T13:18:54;24.40;60.20
4425;DHT22;2225;53.568;13.266;2023-09-19T13:24:22;24.30;60.40
4425;DHT22;2225;53.568;13.266;2023-09-19T13:26:52;24.30;61.50
4425;DHT22;2225;53.568;13.266;2023-09-19T13:29:19;24.30;61.20
4425;DHT22;2225;53.568;13.266;2023-09-19T13:31:50;24.30;60.90
4425;DHT22;2225;53.568;13.266;2023-09-19T13:34:19;24.40;61.30
4425;DHT22;2225;53.568;13.266;2023-09-19T13:36:47;24.40;61.10
4425;DHT22;2225;53.568;13.266;2023-09-19T13:39:17;24.30;60.20
4425;DHT22;2225;53.568;13.266;2023-09-19T13:41:45;24.40;60.80
4425;DHT22;2225;53.568;13.266;2023-09-19T13:44:14;24.40;60.70
4425;DHT22;2225;53.568;13.266;2023-09-19T13:46:42;24.30;59.60
4425;DHT22;2225;53.568;13.266;2023-09-19T13:49:13;24.30;59.70
4425;DHT22;2225;53.568;13.266;2023-09-19T13:51:39;24.30;59.70
4425;DHT22;2225;53.568;13.266;2023-09-19T13:54:10;24.30;60.20
4425;DHT22;2225;53.568;13.266;2023-09-19T13:56:38;24.30;59.90
4425;DHT22;2225;53.568;13.266;2023-09-19T13:59:06;24.30;60.10
4425;DHT22;2225;53.568;13.266;2023-09-19T14:01:33;24.40;60.40
4425;DHT22;2225;53.568;13.266;2023-09-19T14:04:00;24.40;60.00
4425;DHT22;2225;53.568;13.266;2023-09-19T14:06:27;24.40;59.20
4425;DHT22;2225;53.568;13.266;2023-09-19T14:08:53;24.50;59.40
4425;DHT22;2225;53.568;13.266;2023-09-19T14:11:20;24.50;59.30
4425;DHT22;2225;53.568;13.266;2023-09-19T14:13:47;24.50;58.80
4425;DHT22;2225;53.568;13.266;2023-09-19T14:16:16;24.50;58.40
4425;DHT22;2225;53.568;13.266;2023-09-19T14:18:45;24.50;58.70
4425;DHT22;2225;53.568;13.266;2023-09-19T14:21:13;24.60;59.40
4425;DHT22;2225;53.568;13.266;2023-09-19T14:23:41;24.60;58.10
4425;DHT22;2225;53.568;13.266;2023-09-19T14:26:10;24.50;58.50
4425;DHT22;2225;53.568;13.266;2023-09-19T14:28:37;24.50;58.30
4425;DHT22;2225;53.568;13.266;2023-09-19T14:31:10;24.60;58.70
4425;DHT22;2225;53.568;13.266;2023-09-19T14:33:37;24.60;58.30
4425;DHT22;2225;53.568;13.266;2023-09-19T14:36:07;24.60;58.50
4425;DHT22;2225;53.568;13.266;2023-09-19T14:38:36;24.60;57.90
4425;DHT22;2225;53.568;13.266;2023-09-19T14:41:05;24.60;58.20
4425;DHT22;2225;53.568;13.266;2023-09-19T14:43:32;24.50;58.10
4425;DHT22;2225;53.568;13.266;2023-09-19T14:46:06;24.50;58.00
4425;DHT22;2225;53.568;13.266;2023-09-19T14:48:40;24.40;58.20
4425;DHT22;2225;53.568;13.266;2023-09-19T14:51:08;24.40;58.20
4425;DHT22;2225;53.568;13.266;2023-09-19T14:53:36;24.40;58.30
4425;DHT22;2225;53.568;13.266;2023-09-19T14:56:06;24.40;58.90
4425;DHT22;2225;53.568;13.266;2023-09-19T14:58:34;24.40;58.70
4425;DHT22;2225;53.568;13.266;2023-09-19T15:01:06;24.40;59.10
4425;DHT22;2225;53.568;13.266;2023-09-19T15:03:34;24.40;58.80
4425;DHT22;2225;53.568;13.266;2023-09-19T15:06:10;24.30;58.70
4425;DHT22;2225;53.568;13.266;2023-09-19T15:08:47;24.30;58.70
4425;DHT22;2225;53.568;13.266;2023-09-19T15:11:15;24.30;58.90
4425;DHT22;2225;53.568;13.266;2023-09-19T15:13:47;24.40;59.00
4425;DHT22;2225;53.568;13.266;2023-09-19T15:16:17;24.40;59.00
4425;DHT22;2225;53.568;13.266;2023-09-19T15:18:45;24.40;59.30
4425;DHT22;2225;53.568;13.266;2023-09-19T15:21:14;24.40;58.50
4425;DHT22;2225;53.568;13.266;2023-09-19T15:23:42;24.40;58.50
4425;DHT22;2225;53.568;13.266;2023-09-19T15:26:12;24.30;58.50
4425;DHT22;2225;53.568;13.266;2023-09-19T15:28:40;24.30;58.70
4425;DHT22;2225;53.568;13.266;2023-09-19T15:31:11;24.30;58.90
4425;DHT22;2225;53.568;13.266;2023-09-19T15:33:39;24.30;59.10
4425;DHT22;2225;53.568;13.266;2023-09-19T15:36:12;24.30;59.10
4425;DHT22;2225;53.568;13.266;2023-09-19T15:39:03;24.20;59.10
4425;DHT22;2225;53.568;13.266;2023-09-19T15:41:40;24.20;58.90
4425;DHT22;2225;53.568;13.266;2023-09-19T15:44:15;24.20;59.20
4425;DHT22;2225;53.568;13.266;2023-09-19T15:46:45;24.20;59.40
4425;DHT22;2225;53.568;13.266;2023-09-19T15:49:12;24.10;58.80
4425;DHT22;2225;53.568;13.266;2023-09-19T15:51:40;24.10;58.80
4425;DHT22;2225;53.568;13.266;2023-09-19T15:54:09;24.00;58.80
4425;DHT22;2225;53.568;13.266;2023-09-19T15:56:37;23.90;59.50
4425;DHT22;2225;53.568;13.266;2023-09-19T15:59:04;23.90;60.00
4425;DHT22;2225;53.568;13.266;2023-09-19T16:01:31;23.90;59.80
4425;DHT22;2225;53.568;13.266;2023-09-19T16:03:58;23.90;59.60
4425;DHT22;2225;53.568;13.266;2023-09-19T16:06:27;23.80;59.90
4425;DHT22;2225;53.568;13.266;2023-09-19T16:08:57;23.80;60.10
4425;DHT22;2225;53.568;13.266;2023-09-19T16:11:27;23.70;59.90
4425;DHT22;2225;53.568;13.266;2023-09-19T16:13:54;23.70;60.30
4425;DHT22;2225;53.568;13.266;2023-09-19T16:16:22;23.60;60.80
4425;DHT22;2225;53.568;13.266;2023-09-19T16:18:52;23.60;61.40
4425;DHT22;2225;53.568;13.266;2023-09-19T16:21:25;23.50;61.50
4425;DHT22;2225;53.568;13.266;2023-09-19T16:23:57;23.50;61.40
4425;DHT22;2225;53.568;13.266;2023-09-19T16:26:25;23.40;61.20
4425;DHT22;2225;53.568;13.266;2023-09-19T16:28:54;23.40;60.90
4425;DHT22;2225;53.568;13.266;2023-09-19T16:31:28;23.30;61.30
4425;DHT22;2225;53.568;13.266;2023-09-19T16:33:56;23.30;61.70
4425;DHT22;2225;53.568;13.266;2023-09-19T16:36:23;23.30;62.00
4425;DHT22;2225;53.568;13.266;2023-09-19T16:38:51;23.20;61.30
4425;DHT22;2225;53.568;13.266;2023-09-19T16:41:18;23.20;61.50
4425;DHT22;2225;53.568;13.266;2023-09-19T16:43:46;23.10;61.60
4425;DHT22;2225;53.568;13.266;2023-09-19T16:46:14;23.10;61.90